createdAt,value
2018-11-03T00:00:20.292Z,60.63
2018-11-03T00:02:30.285Z,59.55
2018-11-03T00:04:40.287Z,61.91
2018-11-03T00:06:50.365Z,62.43
2018-11-03T00:09:03.628Z,62.14
2018-11-03T00:11:14.292Z,62.72
2018-11-03T00:13:24.389Z,64.12
2018-11-03T00:15:33.803Z,64.27
2018-11-03T00:17:43.728Z,61.20
2018-11-03T00:19:53.607Z,59.53
2018-11-03T00:22:02.899Z,60.11
2018-11-03T00:24:11.249Z,59.03
2018-11-03T00:26:20.823Z,61.73
2018-11-03T00:28:30.286Z,59.58
2018-11-03T00:30:39.868Z,59.96
2018-11-03T00:32:51.359Z,59.69
2018-11-03T00:35:01.287Z,57.77
2018-11-03T00:37:11.452Z,58.62
2018-11-03T00:39:21.291Z,59.86
2018-11-03T00:41:31.746Z,59.45
2018-11-03T00:43:41.382Z,60.85
2018-11-03T00:45:50.810Z,61.64
2018-11-03T00:48:00.552Z,60.85
2018-11-03T00:50:11.101Z,57.75
2018-11-03T00:52:20.920Z,55.63
2018-11-03T00:54:29.249Z,54.80
2018-11-03T00:56:40.661Z,60.74
2018-11-03T00:58:50.428Z,58.98
2018-11-03T01:01:00.287Z,59.16
2018-11-03T01:03:09.879Z,60.33
2018-11-03T01:05:20.473Z,58.54
2018-11-03T01:07:30.282Z,58.18
2018-11-03T01:09:40.285Z,56.96
2018-11-03T01:11:50.654Z,56.87
2018-11-03T01:14:00.719Z,58.99
2018-11-03T01:16:10.412Z,59.66
2018-11-03T01:18:19.821Z,56.55
2018-11-03T01:20:27.854Z,60.24
2018-11-03T01:22:37.396Z,62.08
2018-11-03T01:24:47.275Z,61.57
2018-11-03T01:26:57.284Z,58.46
2018-11-03T01:29:07.282Z,59.30
2018-11-03T01:31:17.730Z,64.04
2018-11-03T01:33:27.378Z,63.27
2018-11-03T01:35:37.084Z,61.03
2018-11-03T01:37:46.722Z,62.71
2018-11-03T01:39:56.416Z,57.61
2018-11-03T01:42:07.283Z,58.72
2018-11-03T01:44:16.740Z,60.74
2018-11-03T01:46:26.281Z,58.00
2018-11-03T01:48:35.881Z,60.66
2018-11-03T01:50:45.736Z,63.28
2018-11-03T01:52:55.743Z,60.82
2018-11-03T01:55:05.288Z,63.56
2018-11-03T01:57:15.109Z,61.66
2018-11-03T01:59:26.771Z,61.15
2018-11-03T02:01:36.628Z,59.95
2018-11-03T02:03:46.548Z,58.39
2018-11-03T02:05:56.601Z,56.77
2018-11-03T02:08:06.439Z,61.70
2018-11-03T02:10:16.287Z,55.78
2018-11-03T02:12:25.806Z,54.52
2018-11-03T02:14:36.107Z,56.43
2018-11-03T02:16:45.540Z,57.55
2018-11-03T02:18:55.390Z,58.88
2018-11-03T02:21:05.541Z,59.36
2018-11-03T02:23:14.802Z,56.70
2018-11-03T02:25:24.631Z,56.96
2018-11-03T02:27:36.820Z,57.27
2018-11-03T02:29:45.254Z,59.10
2018-11-03T02:31:54.844Z,59.48
2018-11-03T02:34:04.584Z,56.50
2018-11-03T02:36:14.295Z,54.00
2018-11-03T02:38:24.674Z,55.05
2018-11-03T02:40:34.286Z,56.58
2018-11-03T02:42:44.748Z,59.07
2018-11-03T02:44:54.611Z,57.41
2018-11-03T02:47:04.896Z,62.90
2018-11-03T02:49:14.678Z,64.72
2018-11-03T02:51:24.711Z,60.05
2018-11-03T02:53:34.403Z,59.98
2018-11-03T02:55:44.282Z,59.02
2018-11-03T02:57:54.285Z,55.90
2018-11-03T03:00:03.760Z,63.61
2018-11-03T03:04:32.280Z,64.85
2018-11-03T03:06:42.530Z,64.22
2018-11-03T03:08:52.279Z,62.90
2018-11-03T03:11:01.818Z,61.79
2018-11-03T03:13:11.701Z,63.66
2018-11-03T03:15:22.287Z,62.92
2018-11-03T03:17:32.769Z,56.04
2018-11-03T03:19:42.285Z,55.63
2018-11-03T03:21:51.705Z,58.34
2018-11-03T03:24:01.529Z,57.47
2018-11-03T03:26:11.276Z,56.28
2018-11-03T03:28:20.748Z,60.18
2018-11-03T03:30:30.368Z,58.59
2018-11-03T03:32:40.291Z,58.54
2018-11-03T03:34:50.061Z,59.01
2018-11-03T03:36:59.729Z,57.10
2018-11-03T03:39:12.832Z,54.66
2018-11-03T03:41:22.628Z,54.36
2018-11-03T03:43:32.451Z,51.80
2018-11-03T03:45:42.283Z,51.23
2018-11-03T03:47:51.847Z,51.63
2018-11-03T03:50:02.105Z,58.75
2018-11-03T03:52:11.715Z,60.28
2018-11-03T03:54:20.792Z,62.39
2018-11-03T03:56:30.344Z,60.87
2018-11-03T03:58:39.819Z,59.74
2018-11-03T04:00:49.291Z,58.00
2018-11-03T04:02:59.100Z,54.21
2018-11-03T04:05:08.826Z,57.72
2018-11-03T04:07:18.876Z,56.41
2018-11-03T04:09:28.700Z,53.25
2018-11-03T04:11:39.279Z,53.10
2018-11-03T04:13:48.845Z,52.26
2018-11-03T04:15:56.706Z,53.76
2018-11-03T04:18:06.727Z,55.14
2018-11-03T04:20:16.598Z,56.50
2018-11-03T04:22:26.293Z,53.68
2018-11-03T04:24:35.735Z,54.81
2018-11-03T04:26:45.280Z,60.13
2018-11-03T04:28:54.712Z,64.42
2018-11-03T04:31:04.109Z,67.84
2018-11-03T04:33:13.752Z,66.74
2018-11-03T04:35:23.803Z,64.51
2018-11-03T04:37:34.292Z,61.25
2018-11-03T04:39:44.285Z,63.63
2018-11-03T04:41:54.641Z,64.74
2018-11-03T04:44:04.644Z,65.36
2018-11-03T04:46:14.279Z,64.78
2018-11-03T04:48:24.612Z,63.79
2018-11-03T04:50:34.285Z,66.44
2018-11-03T04:52:44.285Z,69.87
2018-11-03T04:54:54.345Z,71.62
2018-11-03T04:57:03.751Z,72.97
2018-11-03T04:59:14.378Z,72.71
2018-11-03T05:01:23.792Z,66.46
2018-11-03T05:03:33.730Z,64.21
2018-11-03T05:05:43.576Z,60.72
2018-11-03T05:07:52.785Z,61.32
2018-11-03T05:10:02.348Z,62.72
2018-11-03T05:12:12.311Z,64.87
2018-11-03T05:14:21.700Z,69.97
2018-11-03T05:16:31.705Z,71.94
2018-11-03T05:18:41.282Z,71.93
2018-11-03T05:21:49.839Z,72.91
2018-11-03T05:23:59.714Z,73.16
2018-11-03T05:26:09.710Z,71.18
2018-11-03T05:28:19.812Z,68.67
2018-11-03T05:30:28.020Z,66.70
2018-11-03T05:32:37.717Z,65.87
2018-11-03T05:34:47.286Z,66.02
2018-11-03T05:36:57.289Z,63.54
2018-11-03T05:39:07.112Z,62.40
2018-11-03T05:41:17.291Z,63.67
2018-11-03T05:43:26.767Z,65.24
2018-11-03T05:45:36.615Z,66.17
2018-11-03T05:47:46.286Z,64.88
2018-11-03T05:49:55.747Z,62.64
2018-11-03T05:52:05.285Z,60.97
2018-11-03T05:54:15.286Z,61.68
2018-11-03T05:56:24.785Z,63.64
2018-11-03T05:58:34.289Z,66.98
2018-11-03T06:00:44.289Z,66.28
2018-11-03T06:02:54.281Z,66.85
2018-11-03T06:05:03.861Z,73.44
2018-11-03T06:07:13.709Z,75.42
2018-11-03T06:09:23.726Z,72.73
2018-11-03T06:11:33.723Z,70.43
2018-11-03T06:13:43.287Z,70.51
2018-11-03T06:15:53.387Z,68.76
2018-11-03T06:18:02.848Z,69.71
2018-11-03T06:20:12.822Z,68.87
2018-11-03T06:22:22.314Z,70.93
2018-11-03T06:24:32.289Z,68.00
2018-11-03T06:26:42.371Z,67.67
2018-11-03T06:28:51.721Z,66.65
2018-11-03T06:31:01.304Z,66.79
2018-11-03T06:33:11.286Z,64.25
2018-11-03T06:35:20.930Z,63.25
2018-11-03T06:37:30.726Z,65.92
2018-11-03T06:39:41.284Z,70.11
2018-11-03T06:41:51.279Z,66.27
2018-11-03T06:44:01.412Z,64.67
2018-11-03T06:46:10.917Z,65.89
2018-11-03T06:48:18.701Z,66.89
2018-11-03T06:50:28.801Z,67.14
2018-11-03T06:52:36.633Z,67.54
2018-11-03T06:54:46.678Z,68.10
2018-11-03T06:56:56.385Z,67.07
2018-11-03T06:59:06.081Z,68.05
2018-11-03T07:01:15.765Z,69.64
2018-11-03T07:03:25.389Z,71.33
2018-11-03T07:05:34.756Z,71.98
2018-11-03T07:07:44.553Z,73.20
2018-11-03T07:09:55.278Z,74.09
2018-11-03T07:12:05.289Z,71.81
2018-11-03T07:14:15.340Z,70.88
2018-11-03T07:16:25.277Z,69.22
2018-11-03T07:18:34.805Z,68.10
2018-11-03T07:20:44.675Z,67.84
2018-11-03T07:22:54.404Z,69.71
2018-11-03T07:25:04.285Z,72.45
2018-11-03T07:27:13.754Z,71.85
2018-11-03T07:29:23.413Z,71.04
2018-11-03T07:31:32.865Z,73.65
2018-11-03T07:33:42.451Z,74.05
2018-11-03T07:35:51.813Z,75.03
2018-11-03T07:38:01.645Z,72.94
2018-11-03T07:40:13.665Z,72.49
2018-11-03T07:42:23.645Z,70.50
2018-11-03T07:44:33.286Z,68.78
2018-11-03T07:46:43.287Z,68.12
2018-11-03T07:48:52.887Z,66.99
2018-11-03T07:51:02.720Z,66.10
2018-11-03T07:53:12.623Z,67.14
2018-11-03T07:55:22.559Z,72.25
2018-11-03T07:57:32.287Z,75.23
2018-11-03T07:59:41.861Z,76.17
2018-11-03T08:01:50.843Z,78.06
2018-11-03T08:03:58.645Z,77.91
2018-11-03T08:06:08.365Z,74.71
2018-11-03T08:08:18.364Z,75.93
2018-11-03T08:10:27.908Z,77.73
2018-11-03T08:12:37.725Z,79.53
2018-11-03T08:14:47.765Z,81.27
2018-11-03T08:16:57.617Z,79.48
2018-11-03T08:19:07.290Z,74.50
2018-11-03T08:21:16.858Z,70.75
2018-11-03T08:23:26.735Z,68.02
2018-11-03T08:25:36.768Z,69.17
2018-11-03T08:27:46.540Z,69.68
2018-11-03T08:29:56.396Z,69.21
2018-11-03T08:32:06.492Z,65.68
2018-11-03T08:34:16.548Z,62.46
2018-11-03T08:36:25.924Z,62.89
2018-11-03T08:39:18.157Z,64.24
2018-11-03T08:41:27.731Z,67.15
2018-11-03T08:43:37.416Z,67.49
2018-11-03T08:45:46.839Z,67.53
2018-11-03T08:47:56.740Z,66.17
2018-11-03T08:50:07.081Z,69.13
2018-11-03T08:52:16.720Z,69.30
2018-11-03T08:54:26.778Z,63.20
2018-11-03T08:56:36.817Z,60.87
2018-11-03T08:58:46.738Z,61.10
2018-11-03T09:00:56.714Z,62.23
2018-11-03T09:03:06.374Z,61.39
2018-11-03T09:05:15.776Z,61.88
2018-11-03T09:07:25.718Z,63.77
2018-11-03T09:09:34.907Z,66.70
2018-11-03T09:12:40.574Z,72.34
2018-11-03T09:14:50.715Z,74.62
2018-11-03T09:17:00.557Z,76.72
2018-11-03T09:19:10.692Z,81.38
2018-11-03T09:21:20.702Z,83.12
2018-11-03T09:23:30.723Z,81.75
2018-11-03T09:25:40.835Z,83.04
2018-11-03T09:27:50.710Z,82.89
2018-11-03T09:30:00.439Z,82.41
2018-11-03T09:32:10.295Z,77.44
2018-11-03T09:34:20.291Z,72.34
2018-11-03T09:36:29.712Z,65.80
2018-11-03T09:38:39.326Z,64.57
2018-11-03T09:40:48.957Z,68.77
2018-11-03T09:42:57.326Z,76.08
2018-11-03T09:45:07.441Z,80.08
2018-11-03T09:47:17.112Z,79.57
2018-11-03T09:49:27.536Z,78.14
2018-11-03T09:51:37.285Z,73.72
2018-11-03T09:53:47.286Z,71.73
2018-11-03T09:55:56.796Z,70.20
2018-11-03T09:58:07.285Z,70.26
2018-11-03T10:00:19.720Z,74.83
2018-11-03T10:02:29.286Z,75.53
2018-11-03T10:04:39.283Z,75.12
2018-11-03T10:06:49.467Z,70.62
2018-11-03T10:08:58.829Z,66.41
2018-11-03T10:11:08.797Z,68.67
2018-11-03T10:13:18.719Z,71.45
2018-11-03T10:15:28.804Z,70.90
2018-11-03T10:17:38.390Z,68.26
2018-11-03T10:19:48.439Z,69.62
2018-11-03T10:21:58.321Z,68.41
2018-11-03T10:24:08.282Z,68.21
2018-11-03T10:26:18.281Z,70.15
2018-11-03T10:28:27.994Z,75.05
2018-11-03T10:30:37.509Z,78.81
2018-11-03T10:32:47.691Z,80.11
2018-11-03T10:34:57.274Z,81.18
2018-11-03T10:37:07.277Z,82.21
2018-11-03T10:39:16.778Z,83.51
2018-11-03T10:41:26.281Z,83.27
2018-11-03T10:43:36.088Z,81.14
2018-11-03T10:45:45.746Z,77.47
2018-11-03T10:47:55.364Z,75.47
2018-11-03T10:50:04.746Z,76.01
2018-11-03T10:52:15.274Z,73.94
2018-11-03T10:54:24.815Z,71.94
2018-11-03T10:56:34.747Z,70.32
2018-11-03T10:58:44.510Z,69.70
2018-11-03T11:00:58.272Z,67.29
2018-11-03T11:03:12.276Z,65.98
2018-11-03T11:05:26.408Z,68.62
2018-11-03T11:07:40.374Z,67.49
2018-11-03T11:09:54.779Z,67.88
2018-11-03T11:12:08.702Z,65.12
2018-11-03T11:14:18.828Z,64.13
2018-11-03T11:16:28.634Z,63.18
2018-11-03T11:18:38.279Z,66.17
2018-11-03T11:20:48.686Z,65.16
2018-11-03T11:22:58.537Z,67.25
2018-11-03T11:25:09.409Z,76.54
2018-11-03T11:27:19.564Z,77.25
2018-11-03T11:29:29.374Z,71.46
2018-11-03T11:31:39.378Z,70.06
2018-11-03T11:33:49.404Z,69.69
2018-11-03T11:35:59.708Z,68.81
2018-11-03T11:38:10.712Z,68.82
2018-11-03T11:40:21.097Z,68.55
2018-11-03T11:42:31.034Z,65.67
2018-11-03T11:44:41.277Z,63.63
2018-11-03T11:46:51.102Z,61.21
2018-11-03T11:49:00.900Z,62.93
2018-11-03T11:51:10.799Z,67.03
2018-11-03T11:53:20.445Z,68.91
2018-11-03T11:55:30.322Z,69.95
2018-11-03T11:57:40.285Z,72.47
2018-11-03T11:59:49.830Z,74.00
2018-11-03T12:01:59.716Z,72.41
2018-11-03T12:04:09.780Z,74.87
2018-11-03T12:06:19.280Z,71.62
2018-11-03T12:08:29.096Z,69.72
2018-11-03T12:10:38.702Z,68.36
2018-11-03T12:12:48.513Z,67.70
2018-11-03T12:14:58.397Z,66.37
2018-11-03T12:17:08.686Z,64.86
2018-11-03T12:19:18.277Z,67.09
2018-11-03T12:21:28.106Z,66.52
2018-11-03T12:23:38.274Z,63.06
2018-11-03T12:25:48.825Z,63.10
2018-11-03T12:27:58.884Z,65.22
2018-11-03T12:30:09.395Z,68.63
2018-11-03T12:32:19.281Z,67.33
2018-11-03T12:34:29.284Z,65.23
2018-11-03T12:36:39.296Z,66.51
2018-11-03T12:38:49.279Z,64.34
2018-11-03T12:40:58.909Z,64.30
2018-11-03T12:43:07.266Z,64.32
2018-11-03T12:45:17.370Z,70.66
2018-11-03T12:47:27.277Z,69.62
2018-11-03T12:49:37.555Z,65.57
2018-11-03T12:51:47.277Z,66.79
2018-11-03T12:53:57.277Z,64.78
2018-11-03T12:56:07.508Z,61.18
2018-11-03T12:58:17.324Z,63.03
2018-11-03T13:00:26.911Z,63.42
2018-11-03T13:02:36.280Z,64.76
2018-11-03T13:04:46.096Z,60.75
2018-11-03T13:06:56.775Z,59.71
2018-11-03T13:09:07.613Z,63.71
2018-11-03T13:11:17.489Z,61.96
2018-11-03T13:13:27.278Z,63.28
2018-11-03T13:15:37.283Z,61.99
2018-11-03T13:17:46.817Z,66.59
2018-11-03T13:19:57.545Z,65.05
2018-11-03T13:22:06.781Z,62.00
2018-11-03T13:24:16.380Z,61.27
2018-11-03T13:26:25.734Z,59.86
2018-11-03T13:28:34.850Z,61.16
2018-11-03T13:30:44.268Z,64.37
2018-11-03T13:32:54.272Z,63.39
2018-11-03T13:35:04.358Z,63.74
2018-11-03T13:37:15.338Z,67.15
2018-11-03T13:39:24.766Z,65.14
2018-11-03T13:41:34.720Z,63.45
2018-11-03T13:43:44.406Z,63.48
2018-11-03T13:45:54.270Z,61.91
2018-11-03T13:48:03.783Z,58.00
2018-11-03T13:50:16.694Z,59.09
2018-11-03T13:52:26.525Z,55.40
2018-11-03T13:54:36.731Z,57.49
2018-11-03T13:56:46.287Z,58.41
2018-11-03T13:58:56.265Z,59.17
2018-11-03T14:01:06.342Z,59.92
2018-11-03T14:03:16.431Z,61.07
2018-11-03T14:05:26.274Z,58.09
2018-11-03T14:07:36.295Z,57.25
2018-11-03T14:09:45.870Z,56.54
2018-11-03T14:11:55.827Z,54.07
2018-11-03T14:14:05.680Z,57.83
2018-11-03T14:16:15.718Z,61.87
2018-11-03T14:18:25.560Z,53.97
2018-11-03T14:20:35.272Z,51.37
2018-11-03T14:22:45.937Z,50.32
2018-11-03T14:24:56.626Z,50.85
2018-11-03T14:27:06.573Z,52.87
2018-11-03T14:29:16.670Z,53.59
2018-11-03T14:31:26.770Z,50.77
2018-11-03T14:33:36.709Z,50.23
2018-11-03T14:35:46.354Z,50.54
2018-11-03T14:37:55.865Z,50.07
2018-11-03T14:40:06.275Z,49.07
2018-11-03T14:42:16.537Z,52.70
2018-11-03T14:44:26.311Z,50.00
2018-11-03T14:46:36.273Z,48.83
2018-11-03T14:53:21.435Z,53.18
2018-11-03T14:55:31.279Z,52.82
2018-11-03T14:57:41.530Z,48.67
2018-11-03T14:59:51.684Z,54.93
2018-11-03T15:02:01.835Z,52.90
2018-11-03T15:04:12.643Z,50.39
2018-11-03T15:06:23.371Z,49.64
2018-11-03T15:08:33.184Z,48.95
2018-11-03T15:10:43.789Z,51.36
2018-11-03T15:12:53.696Z,47.91
2018-11-03T15:15:03.407Z,49.75
2018-11-03T15:17:13.447Z,47.90
2018-11-03T15:19:24.273Z,49.08
2018-11-03T15:21:33.839Z,50.22
2018-11-03T15:23:43.274Z,49.59
2018-11-03T15:25:54.280Z,49.49
2018-11-03T15:28:03.886Z,51.61
2018-11-03T15:30:15.699Z,49.34
2018-11-03T15:34:32.854Z,44.75
2018-11-03T15:36:42.399Z,48.53
2018-11-03T15:43:25.793Z,45.37
2018-11-03T15:45:35.400Z,43.94
2018-11-03T15:47:45.639Z,43.95
2018-11-03T15:49:55.282Z,40.95
2018-11-03T15:52:05.275Z,42.99
2018-11-03T15:54:15.278Z,44.02
2018-11-03T15:56:25.636Z,42.29
2018-11-03T15:58:35.699Z,42.28
2018-11-03T16:00:45.396Z,42.02
2018-11-03T16:02:55.278Z,40.50
2018-11-03T16:05:05.279Z,41.83
2018-11-03T16:07:14.992Z,40.03
2018-11-03T16:09:24.769Z,39.60
2018-11-03T16:11:34.278Z,41.05
2018-11-03T16:13:44.648Z,38.24
2018-11-03T16:15:54.391Z,37.10
2018-11-03T16:18:04.411Z,39.15
2018-11-03T16:20:14.883Z,41.86
2018-11-03T16:22:24.884Z,42.18
2018-11-03T16:24:32.824Z,41.53
2018-11-03T16:26:42.278Z,41.36
2018-11-03T16:28:52.403Z,40.97
2018-11-03T16:31:02.403Z,37.53
2018-11-03T16:33:12.543Z,40.87
2018-11-03T16:35:22.296Z,41.95
2018-11-03T16:37:32.369Z,40.72
2018-11-03T16:39:42.103Z,43.20
2018-11-03T16:41:52.709Z,42.12
2018-11-03T16:44:02.409Z,40.38
2018-11-03T16:46:12.854Z,38.00
2018-11-03T16:48:22.764Z,36.88
2018-11-03T16:50:32.714Z,36.48
2018-11-03T16:52:42.804Z,41.53
2018-11-03T16:54:52.690Z,40.96
2018-11-03T16:57:02.276Z,38.88
2018-11-03T16:59:11.724Z,38.87
2018-11-03T17:01:21.553Z,38.92
2018-11-03T17:03:32.106Z,40.48
2018-11-03T17:05:41.716Z,37.35
2018-11-03T17:07:51.721Z,38.60
2018-11-03T17:10:01.283Z,43.77
2018-11-03T17:12:10.762Z,43.49
2018-11-03T17:14:20.563Z,43.06
2018-11-03T17:16:30.081Z,42.70
2018-11-03T17:18:40.381Z,42.23
2018-11-03T17:22:39.094Z,43.58
2018-11-03T17:24:48.846Z,44.09
2018-11-03T17:26:58.826Z,42.45
2018-11-03T17:29:09.717Z,41.50
2018-11-03T17:31:19.391Z,40.82
2018-11-03T17:33:29.282Z,41.42
2018-11-03T17:35:38.765Z,40.71
2018-11-03T17:37:48.724Z,44.06
2018-11-03T17:39:58.649Z,45.57
2018-11-03T17:42:08.521Z,44.56
2018-11-03T17:44:18.826Z,42.37
2018-11-03T17:46:28.407Z,41.98
2018-11-03T17:48:44.706Z,41.41
2018-11-03T17:50:54.274Z,40.95
2018-11-03T17:53:04.386Z,41.73
2018-11-03T17:55:14.780Z,40.02
2018-11-03T17:57:24.706Z,37.77
2018-11-03T17:59:34.276Z,39.77
2018-11-03T18:01:44.097Z,39.17
2018-11-03T18:03:53.400Z,46.46
2018-11-03T18:06:03.292Z,41.63
2018-11-03T18:08:13.659Z,41.65
2018-11-03T18:10:23.850Z,44.36
2018-11-03T18:12:33.349Z,43.19
2018-11-03T18:14:43.712Z,45.20
2018-11-03T18:16:53.708Z,43.10
2018-11-03T18:19:03.842Z,42.06
2018-11-03T18:21:13.790Z,43.09
2018-11-03T18:23:23.805Z,40.99
2018-11-03T18:25:33.283Z,38.73
2018-11-03T18:27:42.807Z,39.75
2018-11-03T18:29:52.277Z,41.48
2018-11-03T18:32:02.402Z,40.79
2018-11-03T18:34:12.309Z,41.59
2018-11-03T18:36:22.280Z,41.70
2018-11-03T18:38:32.275Z,41.75
2018-11-03T18:40:41.836Z,41.39
2018-11-03T18:42:51.590Z,41.93
2018-11-03T18:45:00.806Z,40.75
2018-11-03T18:47:10.724Z,41.67
2018-11-03T18:49:20.277Z,43.54
2018-11-03T18:51:31.528Z,42.89
2018-11-03T18:53:42.784Z,47.09
2018-11-03T18:55:52.278Z,45.60
2018-11-03T18:58:01.793Z,40.52
2018-11-03T19:00:12.661Z,41.08
2018-11-03T19:02:21.819Z,39.74
2018-11-03T19:04:31.505Z,40.55
2018-11-03T19:06:41.279Z,39.40
2018-11-03T19:08:50.720Z,38.67
2018-11-03T19:11:00.280Z,40.17
2018-11-03T19:13:10.314Z,38.69
2018-11-03T19:15:21.381Z,40.06
2018-11-03T19:18:14.544Z,44.04
2018-11-03T19:20:24.309Z,44.59
2018-11-03T19:22:34.786Z,42.84
2018-11-03T19:24:45.713Z,42.06
2018-11-03T19:26:55.282Z,44.31
2018-11-03T19:29:07.282Z,43.83
2018-11-03T19:31:17.276Z,46.90
2018-11-03T19:33:29.110Z,41.79
2018-11-03T19:35:39.097Z,44.77
2018-11-03T19:37:49.719Z,44.95
2018-11-03T19:39:59.277Z,42.43
2018-11-03T19:42:09.281Z,42.29
2018-11-03T19:44:18.744Z,41.94
2018-11-03T19:46:28.380Z,40.85
2018-11-03T19:48:37.715Z,43.90
2018-11-03T19:50:47.483Z,44.58
2018-11-03T19:52:57.388Z,44.46
2018-11-03T19:55:06.843Z,46.65
2018-11-03T19:57:16.576Z,46.45
2018-11-03T19:59:26.280Z,44.96
2018-11-03T20:01:36.283Z,45.88
2018-11-03T20:03:45.815Z,46.05
2018-11-03T20:05:55.532Z,45.58
2018-11-03T20:08:05.086Z,45.21
2018-11-03T20:10:15.771Z,44.12
2018-11-03T20:12:25.283Z,46.28
2018-11-03T20:14:34.762Z,41.71
2018-11-03T20:16:44.720Z,46.56
2018-11-03T20:18:54.772Z,45.44
2018-11-03T20:21:04.452Z,45.70
2018-11-03T20:23:13.810Z,44.09
2018-11-03T20:25:23.770Z,44.77
2018-11-03T20:27:33.724Z,47.21
2018-11-03T20:29:43.293Z,47.36
2018-11-03T20:31:53.378Z,45.40
2018-11-03T20:34:03.290Z,48.67
2018-11-03T20:36:13.291Z,46.76
2018-11-03T20:38:23.711Z,46.02
2018-11-03T20:40:34.048Z,44.51
2018-11-03T20:42:43.734Z,47.27
2018-11-03T20:44:54.054Z,49.41
2018-11-03T20:47:04.288Z,46.72
2018-11-03T20:49:14.928Z,47.48
2018-11-03T20:51:23.292Z,47.84
2018-11-03T20:53:35.954Z,49.78
2018-11-03T20:55:51.288Z,45.85
2018-11-03T20:58:05.400Z,47.96
2018-11-03T21:00:20.290Z,49.37
2018-11-03T21:02:31.603Z,48.74
2018-11-03T21:04:43.285Z,51.47
2018-11-03T21:06:53.290Z,52.04
2018-11-03T21:09:02.900Z,50.93
2018-11-03T21:11:13.847Z,50.49
2018-11-03T21:13:23.733Z,50.36
2018-11-03T21:15:35.360Z,51.47
2018-11-03T21:17:45.791Z,53.32
2018-11-03T21:19:59.280Z,49.10
2018-11-03T21:22:15.376Z,54.45
2018-11-03T21:26:53.825Z,55.08
2018-11-03T21:29:04.405Z,52.30
2018-11-03T21:31:17.946Z,52.89
2018-11-03T21:33:29.294Z,54.04
2018-11-03T21:35:40.645Z,53.37
2018-11-03T21:37:51.981Z,52.08
2018-11-03T21:40:03.290Z,52.58
2018-11-03T21:42:13.556Z,53.30
2018-11-03T21:44:24.295Z,54.19
2018-11-03T21:46:34.088Z,53.48
2018-11-03T21:50:13.675Z,53.78
2018-11-03T21:52:23.580Z,53.96
2018-11-03T21:54:34.107Z,55.41
2018-11-03T21:56:44.288Z,55.22
2018-11-03T21:58:58.426Z,53.93
2018-11-03T22:01:08.879Z,54.92
2018-11-03T22:03:19.749Z,53.24
2018-11-03T22:05:29.297Z,52.29
2018-11-03T22:07:38.837Z,54.58
2018-11-03T22:09:48.860Z,55.53
2018-11-03T22:11:58.521Z,56.60
2018-11-03T22:14:10.716Z,57.04
2018-11-03T22:16:20.283Z,56.81
2018-11-03T22:18:32.287Z,56.42
2018-11-03T22:20:43.743Z,55.27
2018-11-03T22:22:54.286Z,55.70
2018-11-03T22:25:03.862Z,56.67
2018-11-03T22:27:13.296Z,55.76
2018-11-03T22:29:23.353Z,57.26
2018-11-03T22:31:32.875Z,56.03
2018-11-03T22:33:42.727Z,56.87
2018-11-03T22:35:52.729Z,55.82
2018-11-03T22:38:03.408Z,56.00
2018-11-03T22:40:13.528Z,57.79
2018-11-03T22:42:23.596Z,56.54
2018-11-03T22:44:32.873Z,56.07
2018-11-03T22:46:42.773Z,55.27
2018-11-03T22:48:52.284Z,55.77
2018-11-03T22:51:02.378Z,54.09
2018-11-03T22:53:12.290Z,55.42
2018-11-03T22:55:22.596Z,52.82
2018-11-03T22:57:31.875Z,55.98
2018-11-03T23:04:15.907Z,57.84
2018-11-03T23:06:23.997Z,56.06
2018-11-03T23:08:33.590Z,57.08
2018-11-03T23:10:42.871Z,59.45
2018-11-03T23:12:52.674Z,59.60
2018-11-03T23:15:02.708Z,59.37
2018-11-03T23:17:12.288Z,60.36
2018-11-03T23:19:22.555Z,61.41
2018-11-03T23:21:31.826Z,61.05
2018-11-03T23:23:41.407Z,61.55
2018-11-03T23:25:51.535Z,61.94
2018-11-03T23:28:01.426Z,62.09
2018-11-03T23:30:14.373Z,61.91
